Hovedside
METAR-TAF:

METAR-TAF

Lufthavner :

Stockholm-Arlanda, Sverige

Arlanda lufthavn

breddegrad: 59-39N, lengdegrad: 017-57E, høyde over havet: 38 m

Gjeldene værobservasjon

Denne rapporten ble laget for 11 minutter siden, klokken 19:20 UTC
Vind 8 kt fra Øst-nordøst
Temperatur -3°C
Luftfuktighet 93%
Trykk 996 hPa
Sikt 10 km eller mer
Få skyer i en høyde av 2300 ft
Brutte skyer i en høyde av 3800 ft

METAR: ESSA 181920Z 06008KT 9999 FEW023 BKN038 M03/M04 Q0996 R01L/510178 R01R/510182 R08/510173 NOSIG

Tid: 20:31 (19:31 UTC)

Varsel

Denne rapporten ble laget for 2 timer og 1 minutter siden, klokken 17:30 UTC
Varsel gyldig fra 18. klokken 18 UTC til 19. klokken 18 UTC
Vind 8 kt fra Nordøst
Sikt 10 km eller mer
Spredte skyer i en høyde av 1500 ft
Brutte skyer i en høyde av 2500 ft
lett snø
Midlertidig
fra 18. klokken 18 UTC til 18. klokken 24 UTC
Sikt: 2000 m
Brutte skyer i en høyde av 800 ft
snø

TAF: ESSA 181730Z 1818/1918 05008KT 9999 -SN SCT015 BKN025 TEMPO 1818/1824 2000 SN BKN008

Værobservasjoner og værvarsel for over 4000 flyplasser (METAR- og TAF-rapporter).

Tilgjengelige stasjoner er representert av de røde og gule prikkene på kartet.

Hold musepekeren over prikken for å se navnet på stasjonen.

Klikk så for å se værobservasjoner og -varsler.

For å forandre kartet kan du klikke på den grønne knappen med svart kryss for å zoome inn, på den grønne knappen med strek for å zoome ut, eller på de grønne pilene for å se tilstøtende kart.


METAR-TAF: